sensor_id;sensor_type;location;lat;lon;timestamp;temperature;humidity
28839;DHT22;15971;50.772;6.100;2022-10-17T00:01:48;18.10;99.90
28839;DHT22;15971;50.772;6.100;2022-10-17T00:04:14;18.10;99.90
28839;DHT22;15971;50.772;6.100;2022-10-17T00:06:39;18.10;99.90
28839;DHT22;15971;50.772;6.100;2022-10-17T00:09:05;18.10;99.90
28839;DHT22;15971;50.772;6.100;2022-10-17T00:11:31;18.10;99.90
28839;DHT22;15971;50.772;6.100;2022-10-17T00:13:56;18.00;99.90
28839;DHT22;15971;50.772;6.100;2022-10-17T00:16:24;18.10;99.90
28839;DHT22;15971;50.772;6.100;2022-10-17T00:18:50;18.10;99.90
28839;DHT22;15971;50.772;6.100;2022-10-17T00:21:17;18.10;99.90
28839;DHT22;15971;50.772;6.100;2022-10-17T00:23:43;18.10;99.90
28839;DHT22;15971;50.772;6.100;2022-10-17T00:26:09;18.00;99.90
28839;DHT22;15971;50.772;6.100;2022-10-17T00:28:35;18.10;99.90
28839;DHT22;15971;50.772;6.100;2022-10-17T00:31:03;18.00;99.90
28839;DHT22;15971;50.772;6.100;2022-10-17T00:33:29;18.10;99.90
28839;DHT22;15971;50.772;6.100;2022-10-17T00:36:11;18.10;99.90
28839;DHT22;15971;50.772;6.100;2022-10-17T00:38:39;18.00;99.90
28839;DHT22;15971;50.772;6.100;2022-10-17T00:41:05;18.00;99.90
28839;DHT22;15971;50.772;6.100;2022-10-17T00:43:53;18.00;99.90
28839;DHT22;15971;50.772;6.100;2022-10-17T00:46:20;17.90;99.90
28839;DHT22;15971;50.772;6.100;2022-10-17T00:48:48;17.90;99.90
28839;DHT22;15971;50.772;6.100;2022-10-17T00:51:15;17.90;99.90
28839;DHT22;15971;50.772;6.100;2022-10-17T00:53:43;17.90;99.90
28839;DHT22;15971;50.772;6.100;2022-10-17T00:56:10;17.90;99.90
28839;DHT22;15971;50.772;6.100;2022-10-17T00:58:36;17.90;99.90
28839;DHT22;15971;50.772;6.100;2022-10-17T01:01:02;17.90;99.90
28839;DHT22;15971;50.772;6.100;2022-10-17T01:03:27;17.90;99.90
28839;DHT22;15971;50.772;6.100;2022-10-17T01:05:53;17.90;99.90
28839;DHT22;15971;50.772;6.100;2022-10-17T01:08:19;17.90;99.90
28839;DHT22;15971;50.772;6.100;2022-10-17T01:10:57;17.90;99.90
28839;DHT22;15971;50.772;6.100;2022-10-17T01:16:09;17.90;99.90
28839;DHT22;15971;50.772;6.100;2022-10-17T01:32:03;17.80;99.90
28839;DHT22;15971;50.772;6.100;2022-10-17T01:34:36;17.90;99.90
28839;DHT22;15971;50.772;6.100;2022-10-17T01:37:20;17.90;99.90
28839;DHT22;15971;50.772;6.100;2022-10-17T01:39:54;17.90;99.90
28839;DHT22;15971;50.772;6.100;2022-10-17T01:42:43;17.90;99.90
28839;DHT22;15971;50.772;6.100;2022-10-17T01:45:32;17.90;99.90
28839;DHT22;15971;50.772;6.100;2022-10-17T01:48:06;17.90;99.90
28839;DHT22;15971;50.772;6.100;2022-10-17T01:50:36;17.90;99.90
28839;DHT22;15971;50.772;6.100;2022-10-17T01:53:38;17.90;99.90
28839;DHT22;15971;50.772;6.100;2022-10-17T01:56:07;17.90;99.90
28839;DHT22;15971;50.772;6.100;2022-10-17T01:58:56;17.90;99.90
28839;DHT22;15971;50.772;6.100;2022-10-17T02:01:25;17.70;99.90
28839;DHT22;15971;50.772;6.100;2022-10-17T02:03:55;17.80;99.90
28839;DHT22;15971;50.772;6.100;2022-10-17T02:06:22;17.70;99.90
28839;DHT22;15971;50.772;6.100;2022-10-17T02:08:49;17.80;99.90
28839;DHT22;15971;50.772;6.100;2022-10-17T02:11:25;17.70;99.90
28839;DHT22;15971;50.772;6.100;2022-10-17T02:19:45;17.80;99.90
28839;DHT22;15971;50.772;6.100;2022-10-17T02:22:16;17.80;99.90
28839;DHT22;15971;50.772;6.100;2022-10-17T02:24:53;17.80;99.90
28839;DHT22;15971;50.772;6.100;2022-10-17T02:27:29;17.80;99.90
28839;DHT22;15971;50.772;6.100;2022-10-17T02:33:14;17.90;99.90
28839;DHT22;15971;50.772;6.100;2022-10-17T02:35:45;18.00;99.90
28839;DHT22;15971;50.772;6.100;2022-10-17T02:38:12;18.00;99.90
28839;DHT22;15971;50.772;6.100;2022-10-17T02:40:39;17.90;99.90
28839;DHT22;15971;50.772;6.100;2022-10-17T02:43:06;17.90;99.90
28839;DHT22;15971;50.772;6.100;2022-10-17T02:45:32;18.00;99.90
28839;DHT22;15971;50.772;6.100;2022-10-17T02:53:38;17.80;99.90
28839;DHT22;15971;50.772;6.100;2022-10-17T02:56:13;17.90;99.90
28839;DHT22;15971;50.772;6.100;2022-10-17T02:58:41;17.90;99.90
28839;DHT22;15971;50.772;6.100;2022-10-17T03:01:08;17.90;99.90
28839;DHT22;15971;50.772;6.100;2022-10-17T03:03:34;17.80;99.90
28839;DHT22;15971;50.772;6.100;2022-10-17T03:05:59;17.90;99.90
28839;DHT22;15971;50.772;6.100;2022-10-17T03:08:25;17.90;99.90
28839;DHT22;15971;50.772;6.100;2022-10-17T03:10:51;17.90;99.90
28839;DHT22;15971;50.772;6.100;2022-10-17T03:13:16;18.00;99.90
28839;DHT22;15971;50.772;6.100;2022-10-17T03:15:42;18.10;99.90
28839;DHT22;15971;50.772;6.100;2022-10-17T03:18:08;18.00;99.90
28839;DHT22;15971;50.772;6.100;2022-10-17T03:20:34;18.10;99.90
28839;DHT22;15971;50.772;6.100;2022-10-17T03:23:00;18.10;99.90
28839;DHT22;15971;50.772;6.100;2022-10-17T03:25:25;18.20;99.90
28839;DHT22;15971;50.772;6.100;2022-10-17T03:27:51;18.20;99.90
28839;DHT22;15971;50.772;6.100;2022-10-17T03:30:18;18.10;99.90
28839;DHT22;15971;50.772;6.100;2022-10-17T03:32:44;18.20;99.90
28839;DHT22;15971;50.772;6.100;2022-10-17T03:35:09;18.20;99.90
28839;DHT22;15971;50.772;6.100;2022-10-17T03:37:35;18.10;99.90
28839;DHT22;15971;50.772;6.100;2022-10-17T03:40:00;18.10;99.90
28839;DHT22;15971;50.772;6.100;2022-10-17T03:42:26;18.10;99.90
28839;DHT22;15971;50.772;6.100;2022-10-17T03:44:52;18.10;99.90
28839;DHT22;15971;50.772;6.100;2022-10-17T03:47:17;18.10;99.90
28839;DHT22;15971;50.772;6.100;2022-10-17T03:49:43;18.10;99.90
28839;DHT22;15971;50.772;6.100;2022-10-17T03:52:12;18.00;99.90
28839;DHT22;15971;50.772;6.100;2022-10-17T03:54:38;18.10;99.90
28839;DHT22;15971;50.772;6.100;2022-10-17T03:57:03;18.10;99.90
28839;DHT22;15971;50.772;6.100;2022-10-17T03:59:29;18.00;99.90
28839;DHT22;15971;50.772;6.100;2022-10-17T04:01:55;18.10;99.90
28839;DHT22;15971;50.772;6.100;2022-10-17T04:04:21;18.00;99.90
28839;DHT22;15971;50.772;6.100;2022-10-17T04:06:46;18.00;99.90
28839;DHT22;15971;50.772;6.100;2022-10-17T04:09:12;18.00;99.90
28839;DHT22;15971;50.772;6.100;2022-10-17T04:11:37;18.00;99.90
28839;DHT22;15971;50.772;6.100;2022-10-17T04:14:03;18.00;99.90
28839;DHT22;15971;50.772;6.100;2022-10-17T04:16:29;18.00;99.90
28839;DHT22;15971;50.772;6.100;2022-10-17T04:18:56;18.00;99.90
28839;DHT22;15971;50.772;6.100;2022-10-17T04:21:24;18.10;99.90
28839;DHT22;15971;50.772;6.100;2022-10-17T04:23:58;18.10;99.90
28839;DHT22;15971;50.772;6.100;2022-10-17T04:26:24;18.10;99.90
28839;DHT22;15971;50.772;6.100;2022-10-17T04:28:50;18.20;99.90
28839;DHT22;15971;50.772;6.100;2022-10-17T04:31:16;18.20;99.90
28839;DHT22;15971;50.772;6.100;2022-10-17T04:33:45;18.20;99.90
28839;DHT22;15971;50.772;6.100;2022-10-17T04:36:12;18.20;99.90
28839;DHT22;15971;50.772;6.100;2022-10-17T04:38:39;18.20;99.90
28839;DHT22;15971;50.772;6.100;2022-10-17T04:41:07;18.20;99.90
28839;DHT22;15971;50.772;6.100;2022-10-17T04:43:35;18.20;99.90
28839;DHT22;15971;50.772;6.100;2022-10-17T04:46:02;18.20;99.90
28839;DHT22;15971;50.772;6.100;2022-10-17T04:48:29;18.20;99.90
28839;DHT22;15971;50.772;6.100;2022-10-17T04:50:56;18.20;99.90
28839;DHT22;15971;50.772;6.100;2022-10-17T04:53:22;18.20;99.90
28839;DHT22;15971;50.772;6.100;2022-10-17T04:55:48;18.30;99.90
28839;DHT22;15971;50.772;6.100;2022-10-17T04:58:14;18.30;99.90
28839;DHT22;15971;50.772;6.100;2022-10-17T05:00:40;18.30;99.90
28839;DHT22;15971;50.772;6.100;2022-10-17T05:03:05;18.30;99.90
28839;DHT22;15971;50.772;6.100;2022-10-17T05:05:31;18.30;99.90
28839;DHT22;15971;50.772;6.100;2022-10-17T05:07:57;18.30;99.90
28839;DHT22;15971;50.772;6.100;2022-10-17T05:10:22;18.20;99.90
28839;DHT22;15971;50.772;6.100;2022-10-17T05:12:48;18.20;99.90
28839;DHT22;15971;50.772;6.100;2022-10-17T05:15:15;18.20;99.90
28839;DHT22;15971;50.772;6.100;2022-10-17T05:17:40;18.20;99.90
28839;DHT22;15971;50.772;6.100;2022-10-17T05:20:07;18.30;99.90
28839;DHT22;15971;50.772;6.100;2022-10-17T05:22:32;18.10;99.90
28839;DHT22;15971;50.772;6.100;2022-10-17T05:24:58;18.20;99.90
28839;DHT22;15971;50.772;6.100;2022-10-17T05:27:23;18.10;99.90
28839;DHT22;15971;50.772;6.100;2022-10-17T05:29:49;18.10;99.90
28839;DHT22;15971;50.772;6.100;2022-10-17T05:32:15;18.00;99.90
28839;DHT22;15971;50.772;6.100;2022-10-17T05:34:41;18.00;99.90
28839;DHT22;15971;50.772;6.100;2022-10-17T05:37:06;18.00;99.90
28839;DHT22;15971;50.772;6.100;2022-10-17T05:39:32;18.00;99.90
28839;DHT22;15971;50.772;6.100;2022-10-17T05:41:58;17.90;99.90
28839;DHT22;15971;50.772;6.100;2022-10-17T05:44:23;17.90;99.90
28839;DHT22;15971;50.772;6.100;2022-10-17T05:46:49;17.90;99.90
28839;DHT22;15971;50.772;6.100;2022-10-17T05:49:15;17.90;99.90
28839;DHT22;15971;50.772;6.100;2022-10-17T05:51:41;17.90;99.90
28839;DHT22;15971;50.772;6.100;2022-10-17T05:54:06;17.90;99.90
28839;DHT22;15971;50.772;6.100;2022-10-17T05:56:33;17.90;99.90
28839;DHT22;15971;50.772;6.100;2022-10-17T05:58:59;17.90;99.90
28839;DHT22;15971;50.772;6.100;2022-10-17T06:01:25;17.80;99.90
28839;DHT22;15971;50.772;6.100;2022-10-17T06:03:50;17.70;99.90
28839;DHT22;15971;50.772;6.100;2022-10-17T06:06:16;17.60;99.90
28839;DHT22;15971;50.772;6.100;2022-10-17T06:08:43;17.60;99.90
28839;DHT22;15971;50.772;6.100;2022-10-17T06:11:09;17.70;99.90
28839;DHT22;15971;50.772;6.100;2022-10-17T06:13:35;17.70;99.90
28839;DHT22;15971;50.772;6.100;2022-10-17T06:16:00;17.70;99.90
28839;DHT22;15971;50.772;6.100;2022-10-17T06:18:26;17.70;99.90
28839;DHT22;15971;50.772;6.100;2022-10-17T06:20:52;17.70;99.90
28839;DHT22;15971;50.772;6.100;2022-10-17T06:23:17;17.70;99.90
28839;DHT22;15971;50.772;6.100;2022-10-17T06:25:43;17.70;99.90
28839;DHT22;15971;50.772;6.100;2022-10-17T06:28:09;17.80;99.90
28839;DHT22;15971;50.772;6.100;2022-10-17T06:30:38;17.80;99.90
28839;DHT22;15971;50.772;6.100;2022-10-17T06:33:04;17.80;99.90
28839;DHT22;15971;50.772;6.100;2022-10-17T06:35:30;17.80;99.90
28839;DHT22;15971;50.772;6.100;2022-10-17T06:37:56;17.90;99.90
28839;DHT22;15971;50.772;6.100;2022-10-17T06:40:21;17.90;99.90
28839;DHT22;15971;50.772;6.100;2022-10-17T06:42:47;17.90;99.90
28839;DHT22;15971;50.772;6.100;2022-10-17T06:45:13;17.90;99.90
28839;DHT22;15971;50.772;6.100;2022-10-17T06:47:39;18.00;99.90
28839;DHT22;15971;50.772;6.100;2022-10-17T06:50:05;18.10;99.90
28839;DHT22;15971;50.772;6.100;2022-10-17T06:52:30;18.10;99.90
28839;DHT22;15971;50.772;6.100;2022-10-17T06:54:56;18.20;99.90
28839;DHT22;15971;50.772;6.100;2022-10-17T06:57:21;18.30;99.90
28839;DHT22;15971;50.772;6.100;2022-10-17T06:59:47;18.30;99.90
28839;DHT22;15971;50.772;6.100;2022-10-17T07:02:12;18.30;99.90
28839;DHT22;15971;50.772;6.100;2022-10-17T07:04:38;18.30;99.90
28839;DHT22;15971;50.772;6.100;2022-10-17T07:07:04;18.40;99.90
28839;DHT22;15971;50.772;6.100;2022-10-17T07:09:30;18.40;99.90
28839;DHT22;15971;50.772;6.100;2022-10-17T07:11:58;18.40;99.90
28839;DHT22;15971;50.772;6.100;2022-10-17T07:14:23;18.50;99.90
28839;DHT22;15971;50.772;6.100;2022-10-17T07:16:58;18.60;99.90
28839;DHT22;15971;50.772;6.100;2022-10-17T07:19:24;18.70;99.90
28839;DHT22;15971;50.772;6.100;2022-10-17T07:21:51;18.80;99.90
28839;DHT22;15971;50.772;6.100;2022-10-17T07:24:17;18.80;99.90
28839;DHT22;15971;50.772;6.100;2022-10-17T07:26:42;18.90;99.90
28839;DHT22;15971;50.772;6.100;2022-10-17T07:29:08;18.90;99.90
28839;DHT22;15971;50.772;6.100;2022-10-17T07:31:34;18.90;99.90
28839;DHT22;15971;50.772;6.100;2022-10-17T07:34:00;19.00;99.90
28839;DHT22;15971;50.772;6.100;2022-10-17T07:36:25;19.00;99.90
28839;DHT22;15971;50.772;6.100;2022-10-17T07:38:51;19.00;99.90
28839;DHT22;15971;50.772;6.100;2022-10-17T07:41:16;19.10;99.90
28839;DHT22;15971;50.772;6.100;2022-10-17T07:43:43;19.20;99.90
28839;DHT22;15971;50.772;6.100;2022-10-17T07:46:10;19.20;99.90
28839;DHT22;15971;50.772;6.100;2022-10-17T07:48:36;19.30;99.90
28839;DHT22;15971;50.772;6.100;2022-10-17T07:51:04;19.40;99.90
28839;DHT22;15971;50.772;6.100;2022-10-17T07:53:30;19.40;99.90
28839;DHT22;15971;50.772;6.100;2022-10-17T07:55:56;19.40;99.90
28839;DHT22;15971;50.772;6.100;2022-10-17T07:58:22;19.40;99.90
28839;DHT22;15971;50.772;6.100;2022-10-17T08:00:47;19.40;99.90
28839;DHT22;15971;50.772;6.100;2022-10-17T08:03:15;19.60;99.90
28839;DHT22;15971;50.772;6.100;2022-10-17T08:05:40;19.70;99.90
28839;DHT22;15971;50.772;6.100;2022-10-17T08:08:06;19.90;99.90
28839;DHT22;15971;50.772;6.100;2022-10-17T08:10:32;20.00;99.90
28839;DHT22;15971;50.772;6.100;2022-10-17T08:12:57;20.00;99.90
28839;DHT22;15971;50.772;6.100;2022-10-17T08:15:24;20.10;99.90
28839;DHT22;15971;50.772;6.100;2022-10-17T08:17:50;20.10;99.90
28839;DHT22;15971;50.772;6.100;2022-10-17T08:20:16;20.20;99.90
28839;DHT22;15971;50.772;6.100;2022-10-17T08:22:41;20.30;99.90
28839;DHT22;15971;50.772;6.100;2022-10-17T08:25:08;20.30;99.90
28839;DHT22;15971;50.772;6.100;2022-10-17T08:27:33;20.40;99.90
28839;DHT22;15971;50.772;6.100;2022-10-17T08:30:00;20.50;99.90
28839;DHT22;15971;50.772;6.100;2022-10-17T08:32:27;20.60;99.90
28839;DHT22;15971;50.772;6.100;2022-10-17T08:34:54;20.60;99.90
28839;DHT22;15971;50.772;6.100;2022-10-17T08:37:21;20.70;99.90
28839;DHT22;15971;50.772;6.100;2022-10-17T08:39:47;20.70;99.90
28839;DHT22;15971;50.772;6.100;2022-10-17T08:43:33;20.80;99.90
28839;DHT22;15971;50.772;6.100;2022-10-17T08:45:33;20.90;99.90
28839;DHT22;15971;50.772;6.100;2022-10-17T08:48:03;21.00;99.90
28839;DHT22;15971;50.772;6.100;2022-10-17T08:50:45;21.20;99.90
28839;DHT22;15971;50.772;6.100;2022-10-17T08:53:24;21.40;99.90
28839;DHT22;15971;50.772;6.100;2022-10-17T08:55:53;21.40;99.90
28839;DHT22;15971;50.772;6.100;2022-10-17T08:58:38;21.40;99.90
28839;DHT22;15971;50.772;6.100;2022-10-17T09:10:08;21.40;99.90
28839;DHT22;15971;50.772;6.100;2022-10-17T09:15:33;21.40;99.90
28839;DHT22;15971;50.772;6.100;2022-10-17T09:18:02;21.40;99.90
28839;DHT22;15971;50.772;6.100;2022-10-17T09:20:46;21.40;99.90
28839;DHT22;15971;50.772;6.100;2022-10-17T09:23:26;21.60;99.90
28839;DHT22;15971;50.772;6.100;2022-10-17T09:25:55;21.40;99.90
28839;DHT22;15971;50.772;6.100;2022-10-17T09:28:31;21.40;99.90
28839;DHT22;15971;50.772;6.100;2022-10-17T09:33:45;21.50;99.90
28839;DHT22;15971;50.772;6.100;2022-10-17T09:36:36;21.40;99.90
28839;DHT22;15971;50.772;6.100;2022-10-17T09:39:05;21.40;99.90
28839;DHT22;15971;50.772;6.100;2022-10-17T09:41:40;21.40;99.90
28839;DHT22;15971;50.772;6.100;2022-10-17T09:44:29;21.50;99.90
28839;DHT22;15971;50.772;6.100;2022-10-17T09:49:44;21.40;99.90
28839;DHT22;15971;50.772;6.100;2022-10-17T09:52:16;21.50;99.90
28839;DHT22;15971;50.772;6.100;2022-10-17T09:54:52;21.60;99.90
28839;DHT22;15971;50.772;6.100;2022-10-17T09:57:20;21.60;99.90
28839;DHT22;15971;50.772;6.100;2022-10-17T09:59:47;21.40;99.90
28839;DHT22;15971;50.772;6.100;2022-10-17T10:02:21;22.00;99.90
28839;DHT22;15971;50.772;6.100;2022-10-17T10:05:14;21.20;99.90
28839;DHT22;15971;50.772;6.100;2022-10-17T10:07:42;21.20;99.90
28839;DHT22;15971;50.772;6.100;2022-10-17T10:10:24;21.30;99.90
28839;DHT22;15971;50.772;6.100;2022-10-17T10:13:16;21.30;99.90
28839;DHT22;15971;50.772;6.100;2022-10-17T10:15:47;21.30;99.90
28839;DHT22;15971;50.772;6.100;2022-10-17T10:23:38;21.20;99.90
28839;DHT22;15971;50.772;6.100;2022-10-17T10:26:24;21.20;99.90
28839;DHT22;15971;50.772;6.100;2022-10-17T10:28:53;21.30;99.90
28839;DHT22;15971;50.772;6.100;2022-10-17T10:31:26;21.10;99.90
28839;DHT22;15971;50.772;6.100;2022-10-17T10:33:52;21.10;99.90
28839;DHT22;15971;50.772;6.100;2022-10-17T10:36:18;21.10;99.90
28839;DHT22;15971;50.772;6.100;2022-10-17T10:38:52;21.10;99.90
28839;DHT22;15971;50.772;6.100;2022-10-17T10:41:18;21.10;99.90
28839;DHT22;15971;50.772;6.100;2022-10-17T10:43:45;21.10;99.90
28839;DHT22;15971;50.772;6.100;2022-10-17T10:46:20;21.00;99.90
28839;DHT22;15971;50.772;6.100;2022-10-17T10:51:34;21.30;99.90
28839;DHT22;15971;50.772;6.100;2022-10-17T10:54:09;21.70;99.90
28839;DHT22;15971;50.772;6.100;2022-10-17T10:56:58;21.40;99.90
28839;DHT22;15971;50.772;6.100;2022-10-17T10:59:55;21.60;99.90
28839;DHT22;15971;50.772;6.100;2022-10-17T11:05:19;21.90;99.90
28839;DHT22;15971;50.772;6.100;2022-10-17T11:10:25;22.20;99.90
28839;DHT22;15971;50.772;6.100;2022-10-17T11:13:10;22.20;99.90
28839;DHT22;15971;50.772;6.100;2022-10-17T11:15:47;22.40;99.90
28839;DHT22;15971;50.772;6.100;2022-10-17T11:18:27;22.50;99.90
28839;DHT22;15971;50.772;6.100;2022-10-17T11:21:08;22.50;99.90
28839;DHT22;15971;50.772;6.100;2022-10-17T11:26:37;22.50;99.90
28839;DHT22;15971;50.772;6.100;2022-10-17T11:29:04;22.60;99.90
28839;DHT22;15971;50.772;6.100;2022-10-17T11:31:43;22.70;99.90
28839;DHT22;15971;50.772;6.100;2022-10-17T11:34:18;22.80;99.90
28839;DHT22;15971;50.772;6.100;2022-10-17T11:36:51;22.80;99.90
28839;DHT22;15971;50.772;6.100;2022-10-17T11:39:25;22.90;99.90
28839;DHT22;15971;50.772;6.100;2022-10-17T11:41:56;22.80;99.90
28839;DHT22;15971;50.772;6.100;2022-10-17T11:44:34;22.60;99.90
28839;DHT22;15971;50.772;6.100;2022-10-17T11:47:10;22.60;99.90
28839;DHT22;15971;50.772;6.100;2022-10-17T11:49:44;22.70;99.90
28839;DHT22;15971;50.772;6.100;2022-10-17T11:54:58;23.10;99.90
28839;DHT22;15971;50.772;6.100;2022-10-17T11:57:41;22.80;99.90
28839;DHT22;15971;50.772;6.100;2022-10-17T12:02:52;22.70;99.90
28839;DHT22;15971;50.772;6.100;2022-10-17T12:08:08;22.50;99.90
28839;DHT22;15971;50.772;6.100;2022-10-17T12:11:24;22.40;99.90
28839;DHT22;15971;50.772;6.100;2022-10-17T12:13:45;22.40;99.90
28839;DHT22;15971;50.772;6.100;2022-10-17T12:21:24;22.20;99.90
28839;DHT22;15971;50.772;6.100;2022-10-17T12:23:54;22.20;99.90
28839;DHT22;15971;50.772;6.100;2022-10-17T12:26:28;22.20;99.90
28839;DHT22;15971;50.772;6.100;2022-10-17T12:28:55;22.10;99.90
28839;DHT22;15971;50.772;6.100;2022-10-17T12:31:23;22.20;99.90
28839;DHT22;15971;50.772;6.100;2022-10-17T12:33:56;22.20;99.90
28839;DHT22;15971;50.772;6.100;2022-10-17T12:55:16;22.20;99.90
28839;DHT22;15971;50.772;6.100;2022-10-17T12:57:58;22.10;99.90
28839;DHT22;15971;50.772;6.100;2022-10-17T13:00:41;22.00;99.90
28839;DHT22;15971;50.772;6.100;2022-10-17T13:03:13;21.90;99.90
28839;DHT22;15971;50.772;6.100;2022-10-17T13:05:44;21.90;99.90
28839;DHT22;15971;50.772;6.100;2022-10-17T13:08:20;21.80;99.90
28839;DHT22;15971;50.772;6.100;2022-10-17T13:10:49;21.90;99.90
28839;DHT22;15971;50.772;6.100;2022-10-17T13:15:58;21.40;99.90
28839;DHT22;15971;50.772;6.100;2022-10-17T13:18:26;22.00;99.90
28839;DHT22;15971;50.772;6.100;2022-10-17T13:21:14;22.10;99.90
28839;DHT22;15971;50.772;6.100;2022-10-17T13:23:40;22.20;99.90
28839;DHT22;15971;50.772;6.100;2022-10-17T13:28:34;22.10;99.90
28839;DHT22;15971;50.772;6.100;2022-10-17T13:31:00;22.10;99.90
28839;DHT22;15971;50.772;6.100;2022-10-17T13:33:36;22.10;99.90
28839;DHT22;15971;50.772;6.100;2022-10-17T13:36:06;22.10;99.90
28839;DHT22;15971;50.772;6.100;2022-10-17T13:38:33;22.00;99.90
28839;DHT22;15971;50.772;6.100;2022-10-17T13:41:00;22.00;99.90
28839;DHT22;15971;50.772;6.100;2022-10-17T13:43:26;21.80;99.90
28839;DHT22;15971;50.772;6.100;2022-10-17T13:45:55;21.80;99.90
28839;DHT22;15971;50.772;6.100;2022-10-17T13:48:26;21.90;99.90
28839;DHT22;15971;50.772;6.100;2022-10-17T13:50:55;22.00;99.90
28839;DHT22;15971;50.772;6.100;2022-10-17T13:55:58;21.90;99.90
28839;DHT22;15971;50.772;6.100;2022-10-17T13:58:25;22.00;99.90
28839;DHT22;15971;50.772;6.100;2022-10-17T14:00:52;21.90;99.90
28839;DHT22;15971;50.772;6.100;2022-10-17T14:03:21;21.80;99.90
28839;DHT22;15971;50.772;6.100;2022-10-17T14:06:06;21.70;99.90
28839;DHT22;15971;50.772;6.100;2022-10-17T14:08:36;21.60;99.90
28839;DHT22;15971;50.772;6.100;2022-10-17T14:11:07;21.60;99.90
28839;DHT22;15971;50.772;6.100;2022-10-17T14:13:37;21.80;99.90
28839;DHT22;15971;50.772;6.100;2022-10-17T14:16:03;21.50;99.90
28839;DHT22;15971;50.772;6.100;2022-10-17T14:18:32;21.60;99.90
28839;DHT22;15971;50.772;6.100;2022-10-17T14:20:59;21.70;99.90
28839;DHT22;15971;50.772;6.100;2022-10-17T14:23:31;21.70;99.90
28839;DHT22;15971;50.772;6.100;2022-10-17T14:28:35;21.60;99.90
28839;DHT22;15971;50.772;6.100;2022-10-17T14:31:30;21.70;99.90
28839;DHT22;15971;50.772;6.100;2022-10-17T14:33:56;21.50;99.90
28839;DHT22;15971;50.772;6.100;2022-10-17T14:36:37;21.50;99.90
28839;DHT22;15971;50.772;6.100;2022-10-17T14:39:06;21.60;99.90
28839;DHT22;15971;50.772;6.100;2022-10-17T14:41:34;21.70;99.90
28839;DHT22;15971;50.772;6.100;2022-10-17T14:44:07;21.60;99.90
28839;DHT22;15971;50.772;6.100;2022-10-17T14:46:43;21.60;99.90
28839;DHT22;15971;50.772;6.100;2022-10-17T14:49:24;21.60;99.90
28839;DHT22;15971;50.772;6.100;2022-10-17T14:54:41;21.40;99.90
28839;DHT22;15971;50.772;6.100;2022-10-17T14:59:57;21.10;99.90
28839;DHT22;15971;50.772;6.100;2022-10-17T15:02:24;21.10;99.90
28839;DHT22;15971;50.772;6.100;2022-10-17T15:04:50;20.90;99.90
28839;DHT22;15971;50.772;6.100;2022-10-17T15:07:17;20.80;99.90
28839;DHT22;15971;50.772;6.100;2022-10-17T15:09:43;20.80;99.90
28839;DHT22;15971;50.772;6.100;2022-10-17T15:12:15;20.70;99.90
28839;DHT22;15971;50.772;6.100;2022-10-17T15:14:42;20.60;99.90
28839;DHT22;15971;50.772;6.100;2022-10-17T15:17:17;20.70;99.90
28839;DHT22;15971;50.772;6.100;2022-10-17T15:19:45;20.60;99.90
28839;DHT22;15971;50.772;6.100;2022-10-17T15:22:11;20.50;99.90
28839;DHT22;15971;50.772;6.100;2022-10-17T15:24:37;20.30;99.90
28839;DHT22;15971;50.772;6.100;2022-10-17T15:27:08;20.30;99.90
28839;DHT22;15971;50.772;6.100;2022-10-17T15:29:37;20.20;99.90
28839;DHT22;15971;50.772;6.100;2022-10-17T15:32:03;20.10;99.90
28839;DHT22;15971;50.772;6.100;2022-10-17T15:34:28;20.10;99.90
28839;DHT22;15971;50.772;6.100;2022-10-17T15:36:54;19.80;99.90
28839;DHT22;15971;50.772;6.100;2022-10-17T15:39:19;19.70;99.90
28839;DHT22;15971;50.772;6.100;2022-10-17T15:41:46;19.40;99.90
28839;DHT22;15971;50.772;6.100;2022-10-17T15:44:13;19.20;99.90
28839;DHT22;15971;50.772;6.100;2022-10-17T15:46:39;19.00;99.90
28839;DHT22;15971;50.772;6.100;2022-10-17T15:49:11;18.60;99.90
28839;DHT22;15971;50.772;6.100;2022-10-17T15:51:37;18.50;99.90
28839;DHT22;15971;50.772;6.100;2022-10-17T15:54:03;18.40;99.90
28839;DHT22;15971;50.772;6.100;2022-10-17T15:56:35;18.50;99.90
28839;DHT22;15971;50.772;6.100;2022-10-17T15:59:09;18.50;99.90
28839;DHT22;15971;50.772;6.100;2022-10-17T16:01:35;18.70;99.90
28839;DHT22;15971;50.772;6.100;2022-10-17T16:04:02;18.60;99.90
28839;DHT22;15971;50.772;6.100;2022-10-17T16:06:28;18.70;99.90
28839;DHT22;15971;50.772;6.100;2022-10-17T16:08:54;18.80;99.90
28839;DHT22;15971;50.772;6.100;2022-10-17T16:11:37;18.80;99.90
28839;DHT22;15971;50.772;6.100;2022-10-17T16:14:15;18.60;99.90
28839;DHT22;15971;50.772;6.100;2022-10-17T16:16:41;18.50;99.90
28839;DHT22;15971;50.772;6.100;2022-10-17T16:19:07;18.70;99.90
28839;DHT22;15971;50.772;6.100;2022-10-17T16:21:35;18.70;99.90
28839;DHT22;15971;50.772;6.100;2022-10-17T16:24:01;18.70;99.90
28839;DHT22;15971;50.772;6.100;2022-10-17T16:26:28;18.70;99.90
28839;DHT22;15971;50.772;6.100;2022-10-17T16:28:53;18.70;99.90
28839;DHT22;15971;50.772;6.100;2022-10-17T16:31:24;18.50;99.90
28839;DHT22;15971;50.772;6.100;2022-10-17T16:33:52;18.40;99.90
28839;DHT22;15971;50.772;6.100;2022-10-17T16:36:18;18.20;99.90
28839;DHT22;15971;50.772;6.100;2022-10-17T16:38:45;18.20;99.90
28839;DHT22;15971;50.772;6.100;2022-10-17T16:41:25;18.20;99.90
28839;DHT22;15971;50.772;6.100;2022-10-17T16:43:53;18.40;99.90
28839;DHT22;15971;50.772;6.100;2022-10-17T16:46:20;18.30;99.90
28839;DHT22;15971;50.772;6.100;2022-10-17T16:48:49;18.40;99.90
28839;DHT22;15971;50.772;6.100;2022-10-17T16:51:17;18.90;99.90
28839;DHT22;15971;50.772;6.100;2022-10-17T16:53:45;18.60;99.90
28839;DHT22;15971;50.772;6.100;2022-10-17T16:56:13;18.70;99.90
28839;DHT22;15971;50.772;6.100;2022-10-17T16:58:40;18.60;99.90
28839;DHT22;15971;50.772;6.100;2022-10-17T17:01:12;18.70;99.90
28839;DHT22;15971;50.772;6.100;2022-10-17T17:03:39;18.60;99.90
28839;DHT22;15971;50.772;6.100;2022-10-17T17:06:06;18.50;99.90
28839;DHT22;15971;50.772;6.100;2022-10-17T17:08:33;18.40;99.90
28839;DHT22;15971;50.772;6.100;2022-10-17T17:10:59;18.60;99.90
28839;DHT22;15971;50.772;6.100;2022-10-17T17:13:26;18.40;99.90
28839;DHT22;15971;50.772;6.100;2022-10-17T17:18:29;18.40;99.90
28839;DHT22;15971;50.772;6.100;2022-10-17T17:21:00;18.60;99.90
28839;DHT22;15971;50.772;6.100;2022-10-17T17:23:27;18.60;99.90
28839;DHT22;15971;50.772;6.100;2022-10-17T17:26:02;18.50;99.90
28839;DHT22;15971;50.772;6.100;2022-10-17T17:28:29;18.50;99.90
28839;DHT22;15971;50.772;6.100;2022-10-17T17:30:55;18.50;99.90
28839;DHT22;15971;50.772;6.100;2022-10-17T17:33:22;18.10;99.90
28839;DHT22;15971;50.772;6.100;2022-10-17T17:35:55;18.30;99.90
28839;DHT22;15971;50.772;6.100;2022-10-17T17:38:21;17.70;99.90
28839;DHT22;15971;50.772;6.100;2022-10-17T17:40:47;17.70;99.90